sensor_id;sensor_type;location;lat;lon;timestamp;pressure;altitude;pressure_sealevel;temperature;humidity
68230;BME280;55048;52.220;5.160;2023-01-30T00:01:43;101578.25;;;7.11;93.62
68230;BME280;55048;52.220;5.160;2023-01-30T00:04:10;101525.00;;;6.86;93.63
68230;BME280;55048;52.220;5.160;2023-01-30T00:06:40;101615.06;;;7.47;93.70
68230;BME280;55048;52.220;5.160;2023-01-30T00:09:06;101617.06;;;7.38;94.09
68230;BME280;55048;52.220;5.160;2023-01-30T00:11:31;101564.06;;;7.25;93.91
68230;BME280;55048;52.220;5.160;2023-01-30T00:13:58;101580.03;;;7.45;94.04
68230;BME280;55048;52.220;5.160;2023-01-30T00:16:25;101473.91;;;6.79;93.50
68230;BME280;55048;52.220;5.160;2023-01-30T00:18:50;101566.94;;;7.30;93.40
68230;BME280;55048;52.220;5.160;2023-01-30T00:21:16;101567.75;;;7.31;93.49
68230;BME280;55048;52.220;5.160;2023-01-30T00:23:43;101580.66;;;7.47;94.43
68230;BME280;55048;52.220;5.160;2023-01-30T00:26:09;101381.09;;;6.19;93.29
68230;BME280;55048;52.220;5.160;2023-01-30T00:28:37;101266.34;;;5.59;93.46
68230;BME280;55048;52.220;5.160;2023-01-30T00:31:03;101285.81;;;5.86;93.23
68230;BME280;55048;52.220;5.160;2023-01-30T00:33:29;101482.16;;;7.04;93.25
68230;BME280;55048;52.220;5.160;2023-01-30T00:35:55;101489.75;;;7.20;93.28
68230;BME280;55048;52.220;5.160;2023-01-30T00:38:22;101538.75;;;7.51;93.52
68230;BME280;55048;52.220;5.160;2023-01-30T00:40:48;101421.53;;;6.96;93.40
68230;BME280;55048;52.220;5.160;2023-01-30T00:43:17;101545.94;;;7.77;93.83
68230;BME280;55048;52.220;5.160;2023-01-30T00:46:05;101476.81;;;7.45;93.52
68230;BME280;55048;52.220;5.160;2023-01-30T00:49:09;101537.59;;;7.86;93.49
68230;BME280;55048;52.220;5.160;2023-01-30T00:51:35;101562.28;;;8.00;93.85
68230;BME280;55048;52.220;5.160;2023-01-30T00:56:26;101496.44;;;7.77;93.45
68230;BME280;55048;52.220;5.160;2023-01-30T00:58:52;101518.88;;;8.01;93.34
68230;BME280;55048;52.220;5.160;2023-01-30T01:01:17;101469.75;;;7.79;93.54
68230;BME280;55048;52.220;5.160;2023-01-30T01:03:43;101487.50;;;7.98;92.78
68230;BME280;55048;52.220;5.160;2023-01-30T01:06:08;101438.19;;;7.77;92.85
68230;BME280;55048;52.220;5.160;2023-01-30T01:08:33;101504.59;;;8.29;92.70
68230;BME280;55048;52.220;5.160;2023-01-30T01:11:00;101441.63;;;7.91;92.26
68230;BME280;55048;52.220;5.160;2023-01-30T01:13:25;101496.25;;;8.32;92.74
68230;BME280;55048;52.220;5.160;2023-01-30T01:15:51;101436.97;;;8.00;92.86
68230;BME280;55048;52.220;5.160;2023-01-30T01:18:16;101397.84;;;7.68;93.06
68230;BME280;55048;52.220;5.160;2023-01-30T01:20:41;101449.00;;;8.02;93.17
68230;BME280;55048;52.220;5.160;2023-01-30T01:23:09;101484.22;;;8.29;93.36
68230;BME280;55048;52.220;5.160;2023-01-30T01:25:35;101448.78;;;8.17;92.96
68230;BME280;55048;52.220;5.160;2023-01-30T01:28:01;101380.72;;;7.64;93.61
68230;BME280;55048;52.220;5.160;2023-01-30T01:30:26;101456.34;;;8.07;93.62
68230;BME280;55048;52.220;5.160;2023-01-30T01:32:51;101433.31;;;7.94;93.46
68230;BME280;55048;52.220;5.160;2023-01-30T01:35:17;101365.44;;;7.60;93.12
68230;BME280;55048;52.220;5.160;2023-01-30T01:37:44;101489.72;;;8.34;93.38
68230;BME280;55048;52.220;5.160;2023-01-30T01:40:17;101475.06;;;8.32;93.75
68230;BME280;55048;52.220;5.160;2023-01-30T01:43:11;101436.56;;;8.03;93.59
68230;BME280;55048;52.220;5.160;2023-01-30T01:45:38;101485.88;;;8.30;93.95
68230;BME280;55048;52.220;5.160;2023-01-30T01:48:26;101486.69;;;8.31;93.76
68230;BME280;55048;52.220;5.160;2023-01-30T01:51:05;101477.50;;;8.33;93.82
68230;BME280;55048;52.220;5.160;2023-01-30T01:53:38;101473.22;;;8.32;93.72
68230;BME280;55048;52.220;5.160;2023-01-30T01:56:06;101473.63;;;8.29;93.78
68230;BME280;55048;52.220;5.160;2023-01-30T01:58:39;101434.50;;;8.05;94.38
68230;BME280;55048;52.220;5.160;2023-01-30T02:01:05;101373.81;;;7.57;94.59
68230;BME280;55048;52.220;5.160;2023-01-30T02:03:34;101450.59;;;8.10;94.76
68230;BME280;55048;52.220;5.160;2023-01-30T02:06:02;101473.00;;;8.21;95.21
68230;BME280;55048;52.220;5.160;2023-01-30T02:08:37;101470.97;;;8.23;95.00
68230;BME280;55048;52.220;5.160;2023-01-30T02:11:11;101473.84;;;8.14;95.38
68230;BME280;55048;52.220;5.160;2023-01-30T02:13:38;101475.25;;;8.24;95.18
68230;BME280;55048;52.220;5.160;2023-01-30T02:16:05;101401.09;;;7.77;95.55
68230;BME280;55048;52.220;5.160;2023-01-30T02:18:33;101446.72;;;8.06;95.27
68230;BME280;55048;52.220;5.160;2023-01-30T02:24:16;101479.34;;;8.19;95.74
68230;BME280;55048;52.220;5.160;2023-01-30T02:27:05;101444.50;;;8.03;95.38
68230;BME280;55048;52.220;5.160;2023-01-30T02:32:22;101427.56;;;7.97;95.27
68230;BME280;55048;52.220;5.160;2023-01-30T02:35:00;101434.31;;;8.00;95.66
68230;BME280;55048;52.220;5.160;2023-01-30T02:37:48;101451.00;;;8.13;95.83
68230;BME280;55048;52.220;5.160;2023-01-30T02:43:11;101447.34;;;8.14;95.98
68230;BME280;55048;52.220;5.160;2023-01-30T02:48:22;101446.72;;;8.06;95.92
68230;BME280;55048;52.220;5.160;2023-01-30T02:51:02;101444.50;;;8.03;96.15
68230;BME280;55048;52.220;5.160;2023-01-30T02:53:33;101421.91;;;7.93;96.00
68230;BME280;55048;52.220;5.160;2023-01-30T02:56:00;101450.22;;;8.13;96.34
68230;BME280;55048;52.220;5.160;2023-01-30T02:58:29;101427.38;;;7.92;96.13
68230;BME280;55048;52.220;5.160;2023-01-30T03:12:01;101389.50;;;7.91;95.08
68230;BME280;55048;52.220;5.160;2023-01-30T03:14:38;101397.81;;;8.02;95.32
68230;BME280;55048;52.220;5.160;2023-01-30T03:17:07;101341.03;;;7.64;94.93
68230;BME280;55048;52.220;5.160;2023-01-30T03:19:34;101429.19;;;8.25;94.91
68230;BME280;55048;52.220;5.160;2023-01-30T03:21:59;101427.34;;;8.25;95.24
68230;BME280;55048;52.220;5.160;2023-01-30T03:24:25;101375.22;;;7.99;94.70
68230;BME280;55048;52.220;5.160;2023-01-30T03:26:58;101366.06;;;7.95;95.17
68230;BME280;55048;52.220;5.160;2023-01-30T03:29:26;101418.41;;;8.19;95.31
68230;BME280;55048;52.220;5.160;2023-01-30T03:31:51;101373.19;;;7.95;95.01
68230;BME280;55048;52.220;5.160;2023-01-30T03:34:17;101328.59;;;7.78;94.92
68230;BME280;55048;52.220;5.160;2023-01-30T03:36:42;101414.31;;;8.30;94.82
68230;BME280;55048;52.220;5.160;2023-01-30T03:39:08;101379.47;;;8.13;94.30
68230;BME280;55048;52.220;5.160;2023-01-30T03:41:34;101368.06;;;8.06;94.16
68230;BME280;55048;52.220;5.160;2023-01-30T03:44:00;101406.56;;;8.29;93.96
68230;BME280;55048;52.220;5.160;2023-01-30T03:46:26;101369.31;;;8.04;94.17
68230;BME280;55048;52.220;5.160;2023-01-30T03:48:51;101404.53;;;8.37;94.06
68230;BME280;55048;52.220;5.160;2023-01-30T03:51:17;101381.72;;;8.23;93.93
68230;BME280;55048;52.220;5.160;2023-01-30T03:53:42;101390.88;;;8.27;93.88
68230;BME280;55048;52.220;5.160;2023-01-30T03:56:10;101414.69;;;8.47;93.41
68230;BME280;55048;52.220;5.160;2023-01-30T03:58:35;101303.16;;;7.71;93.65
68230;BME280;55048;52.220;5.160;2023-01-30T04:01:14;101392.50;;;8.35;93.43
68230;BME280;55048;52.220;5.160;2023-01-30T04:03:40;101389.03;;;8.28;93.09
68230;BME280;55048;52.220;5.160;2023-01-30T04:06:05;101331.66;;;7.88;93.50
68230;BME280;55048;52.220;5.160;2023-01-30T04:08:31;101382.94;;;8.14;93.54
68230;BME280;55048;52.220;5.160;2023-01-30T04:10:56;101419.19;;;8.47;93.21
68230;BME280;55048;52.220;5.160;2023-01-30T04:13:22;101419.81;;;8.49;93.20
68230;BME280;55048;52.220;5.160;2023-01-30T04:15:48;101384.56;;;8.22;93.61
68230;BME280;55048;52.220;5.160;2023-01-30T04:18:32;101426.31;;;8.53;92.81
68230;BME280;55048;52.220;5.160;2023-01-30T04:21:19;101412.66;;;8.36;92.50
68230;BME280;55048;52.220;5.160;2023-01-30T04:23:44;101403.13;;;8.22;92.06
68230;BME280;55048;52.220;5.160;2023-01-30T04:26:10;101433.03;;;8.55;92.19
68230;BME280;55048;52.220;5.160;2023-01-30T04:28:37;101365.81;;;8.10;92.03
68230;BME280;55048;52.220;5.160;2023-01-30T04:31:03;101405.13;;;8.33;91.90
68230;BME280;55048;52.220;5.160;2023-01-30T04:33:48;101433.84;;;8.56;91.05
68230;BME280;55048;52.220;5.160;2023-01-30T04:36:14;101438.56;;;8.54;90.84
68230;BME280;55048;52.220;5.160;2023-01-30T04:38:40;101435.47;;;8.57;90.98
68230;BME280;55048;52.220;5.160;2023-01-30T04:41:06;101282.00;;;7.57;90.44
68230;BME280;55048;52.220;5.160;2023-01-30T04:43:34;101399.22;;;8.37;90.07
68230;BME280;55048;52.220;5.160;2023-01-30T04:46:22;101436.53;;;8.49;89.17
68230;BME280;55048;52.220;5.160;2023-01-30T04:48:48;101381.72;;;8.16;89.67
68230;BME280;55048;52.220;5.160;2023-01-30T04:51:13;101405.53;;;8.43;88.91
68230;BME280;55048;52.220;5.160;2023-01-30T04:53:39;101332.19;;;8.10;88.33
68230;BME280;55048;52.220;5.160;2023-01-30T04:56:05;101378.84;;;8.25;87.90
68230;BME280;55048;52.220;5.160;2023-01-30T04:58:31;101403.50;;;8.45;88.12
68230;BME280;55048;52.220;5.160;2023-01-30T05:01:11;101355.84;;;8.12;87.33
68230;BME280;55048;52.220;5.160;2023-01-30T05:03:37;101370.25;;;8.29;86.33
68230;BME280;55048;52.220;5.160;2023-01-30T05:06:03;101379.03;;;8.30;86.21
68230;BME280;55048;52.220;5.160;2023-01-30T05:08:28;101432.66;;;8.45;86.21
68230;BME280;55048;52.220;5.160;2023-01-30T05:10:56;101380.50;;;8.06;84.78
68230;BME280;55048;52.220;5.160;2023-01-30T05:13:21;101397.81;;;8.22;84.28
68230;BME280;55048;52.220;5.160;2023-01-30T05:15:47;101461.78;;;8.65;83.95
68230;BME280;55048;52.220;5.160;2023-01-30T05:18:12;101397.19;;;8.26;84.23
68230;BME280;55048;52.220;5.160;2023-01-30T05:20:37;101378.66;;;8.19;84.06
68230;BME280;55048;52.220;5.160;2023-01-30T05:23:03;101420.22;;;8.32;83.95
68230;BME280;55048;52.220;5.160;2023-01-30T05:25:28;101364.81;;;8.04;83.28
68230;BME280;55048;52.220;5.160;2023-01-30T05:27:53;101414.31;;;8.30;82.19
68230;BME280;55048;52.220;5.160;2023-01-30T05:30:19;101400.91;;;8.12;81.55
68230;BME280;55048;52.220;5.160;2023-01-30T05:32:44;101366.47;;;7.85;81.80
68230;BME280;55048;52.220;5.160;2023-01-30T05:35:09;101390.50;;;8.04;81.88
68230;BME280;55048;52.220;5.160;2023-01-30T05:37:35;101429.81;;;8.20;81.83
68230;BME280;55048;52.220;5.160;2023-01-30T05:40:02;101461.00;;;8.45;81.60
68230;BME280;55048;52.220;5.160;2023-01-30T05:42:28;101465.84;;;8.34;80.44
68230;BME280;55048;52.220;5.160;2023-01-30T05:44:53;101442.25;;;8.06;79.83
68230;BME280;55048;52.220;5.160;2023-01-30T05:47:18;101440.63;;;8.12;79.64
68230;BME280;55048;52.220;5.160;2023-01-30T05:49:44;101366.47;;;7.46;79.22
68230;BME280;55048;52.220;5.160;2023-01-30T05:52:09;101473.44;;;8.04;78.94
68230;BME280;55048;52.220;5.160;2023-01-30T05:54:35;101469.75;;;8.05;78.96
68230;BME280;55048;52.220;5.160;2023-01-30T05:57:00;101379.69;;;7.46;79.07
68230;BME280;55048;52.220;5.160;2023-01-30T05:59:26;101368.31;;;7.45;79.27
68230;BME280;55048;52.220;5.160;2023-01-30T06:01:51;101399.69;;;7.68;78.36
68230;BME280;55048;52.220;5.160;2023-01-30T06:04:16;101365.25;;;7.35;77.34
68230;BME280;55048;52.220;5.160;2023-01-30T06:06:42;101434.09;;;7.68;77.27
68230;BME280;55048;52.220;5.160;2023-01-30T06:09:09;101459.38;;;7.90;76.98
68230;BME280;55048;52.220;5.160;2023-01-30T06:11:34;101403.72;;;7.37;75.41
68230;BME280;55048;52.220;5.160;2023-01-30T06:14:00;101429.59;;;7.55;74.95
68230;BME280;55048;52.220;5.160;2023-01-30T06:16:25;101391.72;;;7.28;74.71
68230;BME280;55048;52.220;5.160;2023-01-30T06:18:50;101389.00;;;7.08;74.22
68230;BME280;55048;52.220;5.160;2023-01-30T06:21:16;101409.75;;;7.11;74.23
68230;BME280;55048;52.220;5.160;2023-01-30T06:23:42;101490.53;;;7.75;73.76
68230;BME280;55048;52.220;5.160;2023-01-30T06:26:07;101486.44;;;7.73;74.37
68230;BME280;55048;52.220;5.160;2023-01-30T06:28:33;101433.25;;;7.48;74.56
68230;BME280;55048;52.220;5.160;2023-01-30T06:30:58;101463.81;;;7.57;75.17
68230;BME280;55048;52.220;5.160;2023-01-30T06:33:24;101389.00;;;7.02;75.86
68230;BME280;55048;52.220;5.160;2023-01-30T06:35:50;101478.47;;;7.46;76.75
68230;BME280;55048;52.220;5.160;2023-01-30T06:38:17;101374.31;;;6.86;77.12
68230;BME280;55048;52.220;5.160;2023-01-30T06:40:47;101495.97;;;7.47;76.56
68230;BME280;55048;52.220;5.160;2023-01-30T06:43:15;101426.88;;;7.22;76.88
68230;BME280;55048;52.220;5.160;2023-01-30T06:45:40;101465.19;;;7.39;76.62
68230;BME280;55048;52.220;5.160;2023-01-30T06:48:06;101483.16;;;7.51;76.58
68230;BME280;55048;52.220;5.160;2023-01-30T06:50:32;101487.38;;;7.38;76.38
68230;BME280;55048;52.220;5.160;2023-01-30T06:53:00;101505.75;;;7.47;76.49
68230;BME280;55048;52.220;5.160;2023-01-30T06:55:26;101430.50;;;7.08;76.18
68230;BME280;55048;52.220;5.160;2023-01-30T06:58:10;101499.81;;;7.38;75.24
68230;BME280;55048;52.220;5.160;2023-01-30T07:00:37;101516.13;;;7.41;75.86
68230;BME280;55048;52.220;5.160;2023-01-30T07:03:05;101515.25;;;7.41;75.73
68230;BME280;55048;52.220;5.160;2023-01-30T07:05:30;101478.31;;;7.13;75.67
68230;BME280;55048;52.220;5.160;2023-01-30T07:07:56;101470.81;;;7.10;74.97
68230;BME280;55048;52.220;5.160;2023-01-30T07:10:22;101491.66;;;7.33;74.58
68230;BME280;55048;52.220;5.160;2023-01-30T07:12:47;101381.81;;;6.34;74.71
68230;BME280;55048;52.220;5.160;2023-01-30T07:15:13;101509.91;;;7.21;74.27
68230;BME280;55048;52.220;5.160;2023-01-30T07:17:39;101522.19;;;7.35;74.53
68230;BME280;55048;52.220;5.160;2023-01-30T07:20:06;101548.09;;;7.47;74.15
68230;BME280;55048;52.220;5.160;2023-01-30T07:22:31;101475.38;;;6.88;74.30
68230;BME280;55048;52.220;5.160;2023-01-30T07:24:57;101301.97;;;5.98;72.75
68230;BME280;55048;52.220;5.160;2023-01-30T07:27:22;101439.78;;;6.84;73.16
68230;BME280;55048;52.220;5.160;2023-01-30T07:29:48;101490.94;;;7.11;73.35
68230;BME280;55048;52.220;5.160;2023-01-30T07:32:15;101540.16;;;7.47;73.17
68230;BME280;55048;52.220;5.160;2023-01-30T07:34:41;101513.78;;;7.19;73.58
68230;BME280;55048;52.220;5.160;2023-01-30T07:37:06;101512.09;;;7.11;73.42
68230;BME280;55048;52.220;5.160;2023-01-30T07:39:32;101496.25;;;7.18;73.52
68230;BME280;55048;52.220;5.160;2023-01-30T07:41:59;101528.66;;;7.26;73.48
68230;BME280;55048;52.220;5.160;2023-01-30T07:44:24;101497.88;;;7.12;73.20
68230;BME280;55048;52.220;5.160;2023-01-30T07:46:50;101437.94;;;6.84;72.82
68230;BME280;55048;52.220;5.160;2023-01-30T07:49:15;101375.53;;;6.42;72.97
68230;BME280;55048;52.220;5.160;2023-01-30T07:51:40;101528.94;;;7.45;72.73
68230;BME280;55048;52.220;5.160;2023-01-30T07:54:06;101481.16;;;7.05;73.52
68230;BME280;55048;52.220;5.160;2023-01-30T07:56:31;101546.44;;;7.46;72.91
68230;BME280;55048;52.220;5.160;2023-01-30T07:58:56;101496.13;;;7.32;72.46
68230;BME280;55048;52.220;5.160;2023-01-30T08:01:22;101536.31;;;7.56;72.80
68230;BME280;55048;52.220;5.160;2023-01-30T08:03:48;101505.03;;;7.18;72.64
68230;BME280;55048;52.220;5.160;2023-01-30T08:06:16;101507.09;;;7.36;72.60
68230;BME280;55048;52.220;5.160;2023-01-30T08:08:42;101524.66;;;7.37;72.82
68230;BME280;55048;52.220;5.160;2023-01-30T08:11:08;101548.91;;;7.54;73.42
68230;BME280;55048;52.220;5.160;2023-01-30T08:13:34;101524.06;;;7.41;73.13
68230;BME280;55048;52.220;5.160;2023-01-30T08:16:00;101540.75;;;7.55;72.85
68230;BME280;55048;52.220;5.160;2023-01-30T08:18:33;101566.03;;;7.64;72.76
68230;BME280;55048;52.220;5.160;2023-01-30T08:20:59;101564.44;;;7.70;72.60
68230;BME280;55048;52.220;5.160;2023-01-30T08:23:25;101504.88;;;7.33;72.02
68230;BME280;55048;52.220;5.160;2023-01-30T08:25:58;101556.94;;;7.80;72.18
68230;BME280;55048;52.220;5.160;2023-01-30T08:28:25;101513.09;;;7.51;71.97
68230;BME280;55048;52.220;5.160;2023-01-30T08:30:51;101483.13;;;7.37;71.20
68230;BME280;55048;52.220;5.160;2023-01-30T08:33:20;101595.28;;;7.98;70.54
68230;BME280;55048;52.220;5.160;2023-01-30T08:35:45;101396.28;;;6.45;70.49
68230;BME280;55048;52.220;5.160;2023-01-30T08:38:11;101561.31;;;7.47;70.75
68230;BME280;55048;52.220;5.160;2023-01-30T08:40:36;101547.41;;;7.31;71.24
68230;BME280;55048;52.220;5.160;2023-01-30T08:43:02;101611.53;;;7.81;70.70
68230;BME280;55048;52.220;5.160;2023-01-30T08:45:28;101616.66;;;7.96;70.78
68230;BME280;55048;52.220;5.160;2023-01-30T08:47:57;101551.75;;;7.52;70.56
68230;BME280;55048;52.220;5.160;2023-01-30T08:50:23;101447.13;;;6.88;70.84
68230;BME280;55048;52.220;5.160;2023-01-30T08:52:48;101491.81;;;7.18;70.46
68230;BME280;55048;52.220;5.160;2023-01-30T08:55:13;101494.44;;;7.18;71.09
68230;BME280;55048;52.220;5.160;2023-01-30T08:57:42;101582.19;;;7.76;71.15
68230;BME280;55048;52.220;5.160;2023-01-30T09:00:07;101577.75;;;7.90;70.66
68230;BME280;55048;52.220;5.160;2023-01-30T09:02:33;101625.63;;;8.02;70.70
68230;BME280;55048;52.220;5.160;2023-01-30T09:04:58;101538.50;;;7.46;70.45
68230;BME280;55048;52.220;5.160;2023-01-30T09:07:24;101479.75;;;7.09;70.82
68230;BME280;55048;52.220;5.160;2023-01-30T09:09:50;101397.00;;;6.67;70.92
68230;BME280;55048;52.220;5.160;2023-01-30T09:12:15;101636.47;;;8.13;70.96
68230;BME280;55048;52.220;5.160;2023-01-30T09:14:40;101575.66;;;7.72;71.43
68230;BME280;55048;52.220;5.160;2023-01-30T09:17:06;101576.66;;;7.71;71.44
68230;BME280;55048;52.220;5.160;2023-01-30T09:19:31;101616.44;;;7.84;71.07
68230;BME280;55048;52.220;5.160;2023-01-30T09:21:57;101614.63;;;7.98;70.87
68230;BME280;55048;52.220;5.160;2023-01-30T09:24:23;101652.16;;;8.15;71.28
68230;BME280;55048;52.220;5.160;2023-01-30T09:26:53;101637.09;;;8.22;70.83
68230;BME280;55048;52.220;5.160;2023-01-30T09:29:21;101504.84;;;7.26;70.94
68230;BME280;55048;52.220;5.160;2023-01-30T09:31:47;101617.50;;;8.10;70.36
68230;BME280;55048;52.220;5.160;2023-01-30T09:34:12;101645.88;;;8.16;70.36
68230;BME280;55048;52.220;5.160;2023-01-30T09:36:37;101540.38;;;7.58;69.86
68230;BME280;55048;52.220;5.160;2023-01-30T09:39:04;101604.44;;;7.88;70.11
68230;BME280;55048;52.220;5.160;2023-01-30T09:47:09;101610.34;;;7.97;70.73
68230;BME280;55048;52.220;5.160;2023-01-30T09:52:45;101634.16;;;7.84;70.76
68230;BME280;55048;52.220;5.160;2023-01-30T09:55:22;101687.84;;;8.19;71.02
68230;BME280;55048;52.220;5.160;2023-01-30T09:57:49;101658.06;;;8.04;70.89
68230;BME280;55048;52.220;5.160;2023-01-30T10:05:18;101637.84;;;7.96;70.50
68230;BME280;55048;52.220;5.160;2023-01-30T10:16:34;101694.22;;;8.31;69.88
68230;BME280;55048;52.220;5.160;2023-01-30T10:25:43;101700.19;;;8.40;70.74
68230;BME280;55048;52.220;5.160;2023-01-30T10:30:36;101739.94;;;8.40;70.47
68230;BME280;55048;52.220;5.160;2023-01-30T10:33:22;101681.53;;;8.20;69.97
68230;BME280;55048;52.220;5.160;2023-01-30T10:36:07;101682.72;;;8.04;70.22
68230;BME280;55048;52.220;5.160;2023-01-30T10:38:40;101728.41;;;8.19;70.40
68230;BME280;55048;52.220;5.160;2023-01-30T10:41:25;101740.91;;;8.32;70.44
68230;BME280;55048;52.220;5.160;2023-01-30T10:44:11;101735.19;;;8.35;68.90
68230;BME280;55048;52.220;5.160;2023-01-30T10:49:41;101723.63;;;8.43;69.27
68230;BME280;55048;52.220;5.160;2023-01-30T10:52:29;101733.81;;;8.46;69.71
68230;BME280;55048;52.220;5.160;2023-01-30T10:55:30;101733.88;;;8.59;69.63
68230;BME280;55048;52.220;5.160;2023-01-30T11:03:10;101715.31;;;8.86;68.84
68230;BME280;55048;52.220;5.160;2023-01-30T11:05:44;101677.38;;;8.65;68.53
68230;BME280;55048;52.220;5.160;2023-01-30T11:08:27;101688.19;;;8.90;68.23
68230;BME280;55048;52.220;5.160;2023-01-30T11:10:54;101720.44;;;9.20;67.58
68230;BME280;55048;52.220;5.160;2023-01-30T11:13:38;101660.25;;;8.88;66.99
68230;BME280;55048;52.220;5.160;2023-01-30T11:16:05;101720.03;;;9.24;67.13
68230;BME280;55048;52.220;5.160;2023-01-30T11:18:32;101736.16;;;9.15;66.91
68230;BME280;55048;52.220;5.160;2023-01-30T11:21:02;101654.94;;;8.68;66.79
68230;BME280;55048;52.220;5.160;2023-01-30T11:23:40;101718.41;;;9.09;66.92
68230;BME280;55048;52.220;5.160;2023-01-30T11:26:06;101686.94;;;9.00;66.67
68230;BME280;55048;52.220;5.160;2023-01-30T11:28:39;101746.75;;;9.02;66.86
68230;BME280;55048;52.220;5.160;2023-01-30T11:31:15;101749.22;;;9.17;67.01
68230;BME280;55048;52.220;5.160;2023-01-30T11:33:41;101732.47;;;9.16;66.77
68230;BME280;55048;52.220;5.160;2023-01-30T11:36:24;101734.72;;;9.26;67.01
68230;BME280;55048;52.220;5.160;2023-01-30T11:39:16;101706.94;;;9.09;67.42
68230;BME280;55048;52.220;5.160;2023-01-30T11:44:24;101731.25;;;9.19;66.98
68230;BME280;55048;52.220;5.160;2023-01-30T11:46:50;101637.78;;;8.71;66.93
68230;BME280;55048;52.220;5.160;2023-01-30T11:49:17;101676.16;;;8.81;67.16
68230;BME280;55048;52.220;5.160;2023-01-30T11:51:46;101715.09;;;9.40;66.62
68230;BME280;55048;52.220;5.160;2023-01-30T11:54:19;101711.44;;;9.28;66.70
68230;BME280;55048;52.220;5.160;2023-01-30T11:56:54;101711.63;;;9.27;66.95
68230;BME280;55048;52.220;5.160;2023-01-30T11:59:25;101729.78;;;9.36;66.22
68230;BME280;55048;52.220;5.160;2023-01-30T12:02:02;101693.50;;;9.10;66.38
68230;BME280;55048;52.220;5.160;2023-01-30T12:04:28;101739.41;;;9.31;66.85
68230;BME280;55048;52.220;5.160;2023-01-30T12:07:04;101745.31;;;9.39;66.75
68230;BME280;55048;52.220;5.160;2023-01-30T12:09:33;101700.63;;;9.16;66.28
68230;BME280;55048;52.220;5.160;2023-01-30T12:11:59;101672.06;;;8.85;66.57
68230;BME280;55048;52.220;5.160;2023-01-30T12:14:34;101739.59;;;9.49;66.49
68230;BME280;55048;52.220;5.160;2023-01-30T12:17:22;101757.38;;;9.09;67.16
68230;BME280;55048;52.220;5.160;2023-01-30T12:20:19;101754.72;;;9.29;66.97
68230;BME280;55048;52.220;5.160;2023-01-30T12:23:06;101736.56;;;9.12;67.17
68230;BME280;55048;52.220;5.160;2023-01-30T12:31:18;101707.38;;;8.73;67.88
68230;BME280;55048;52.220;5.160;2023-01-30T12:33:44;101744.50;;;8.86;67.76
68230;BME280;55048;52.220;5.160;2023-01-30T12:39:13;101763.06;;;8.99;66.64
68230;BME280;55048;52.220;5.160;2023-01-30T12:42:01;101758.19;;;9.03;66.41
68230;BME280;55048;52.220;5.160;2023-01-30T12:50:13;101783.69;;;9.04;65.57
68230;BME280;55048;52.220;5.160;2023-01-30T13:01:21;101777.19;;;9.19;65.47
68230;BME280;55048;52.220;5.160;2023-01-30T13:14:56;101757.38;;;8.89;64.84
68230;BME280;55048;52.220;5.160;2023-01-30T13:17:42;101813.09;;;9.09;64.37
68230;BME280;55048;52.220;5.160;2023-01-30T13:25:45;101817.81;;;9.00;64.33
68230;BME280;55048;52.220;5.160;2023-01-30T13:28:15;101797.56;;;8.92;63.86
68230;BME280;55048;52.220;5.160;2023-01-30T13:30:44;101728.53;;;8.39;64.19
68230;BME280;55048;52.220;5.160;2023-01-30T13:33:13;101826.13;;;8.84;64.36
68230;BME280;55048;52.220;5.160;2023-01-30T13:35:44;101722.00;;;8.42;64.01
68230;BME280;55048;52.220;5.160;2023-01-30T13:38:17;101696.25;;;8.36;63.63
68230;BME280;55048;52.220;5.160;2023-01-30T13:40:45;101808.59;;;9.03;63.53
68230;BME280;55048;52.220;5.160;2023-01-30T13:43:35;101840.25;;;9.11;64.04
68230;BME280;55048;52.220;5.160;2023-01-30T13:46:06;101781.84;;;8.78;63.26
68230;BME280;55048;52.220;5.160;2023-01-30T13:51:30;101847.19;;;9.12;63.36
68230;BME280;55048;52.220;5.160;2023-01-30T13:57:06;101847.44;;;9.24;63.43
68230;BME280;55048;52.220;5.160;2023-01-30T14:02:22;101878.03;;;9.13;63.54
68230;BME280;55048;52.220;5.160;2023-01-30T14:04:55;101869.66;;;9.09;63.48
68230;BME280;55048;52.220;5.160;2023-01-30T14:07:38;101877.63;;;9.09;63.48
68230;BME280;55048;52.220;5.160;2023-01-30T14:15:21;101902.28;;;8.97;63.03
68230;BME280;55048;52.220;5.160;2023-01-30T14:18:03;101858.16;;;8.82;63.44
68230;BME280;55048;52.220;5.160;2023-01-30T14:20:44;101918.00;;;8.98;64.01
68230;BME280;55048;52.220;5.160;2023-01-30T14:23:31;101892.81;;;8.81;64.03
68230;BME280;55048;52.220;5.160;2023-01-30T14:25:57;101894.88;;;8.79;64.17
68230;BME280;55048;52.220;5.160;2023-01-30T14:30:51;101916.16;;;8.92;63.95
68230;BME280;55048;52.220;5.160;2023-01-30T14:38:30;101952.91;;;9.02;63.75
68230;BME280;55048;52.220;5.160;2023-01-30T14:53:56;101947.06;;;8.72;64.38
68230;BME280;55048;52.220;5.160;2023-01-30T15:04:44;101997.56;;;8.91;64.54
68230;BME280;55048;52.220;5.160;2023-01-30T15:07:12;101990.66;;;8.97;64.48
68230;BME280;55048;52.220;5.160;2023-01-30T15:09:41;101961.47;;;8.56;64.91
68230;BME280;55048;52.220;5.160;2023-01-30T15:14:57;101957.44;;;8.66;64.69
68230;BME280;55048;52.220;5.160;2023-01-30T15:17:59;102008.34;;;8.90;64.97
68230;BME280;55048;52.220;5.160;2023-01-30T15:28:39;102003.28;;;8.54;64.68
68230;BME280;55048;52.220;5.160;2023-01-30T15:31:13;102036.50;;;8.84;64.70
68230;BME280;55048;52.220;5.160;2023-01-30T15:33:50;102043.44;;;8.85;65.04
68230;BME280;55048;52.220;5.160;2023-01-30T15:38:42;102018.66;;;8.72;64.97
68230;BME280;55048;52.220;5.160;2023-01-30T15:41:08;102046.72;;;8.87;64.66
68230;BME280;55048;52.220;5.160;2023-01-30T15:46:42;101998.63;;;8.62;65.28
68230;BME280;55048;52.220;5.160;2023-01-30T15:49:39;102052.19;;;8.79;65.91
68230;BME280;55048;52.220;5.160;2023-01-30T15:52:14;102060.13;;;8.79;67.47
68230;BME280;55048;52.220;5.160;2023-01-30T15:54:40;101967.72;;;8.20;68.29
68230;BME280;55048;52.220;5.160;2023-01-30T15:57:19;102047.34;;;8.55;69.17
68230;BME280;55048;52.220;5.160;2023-01-30T15:59:46;102039.84;;;8.37;69.44